Time;durP1;ratioP1;P1;durP2;ratioP2;P2;SDS_P1;SDS_P2;PMS_P1;PMS_P2;Temp;Humidity;BMP_temperature;BMP_pressure;BME280_temperature;BME280_humidity;BME280_pressure;Samples;Min_cycle;Max_cycle;Signal;HPM_P1;HPM_P2
2022/09/05 00:01:03;;;;;;;0.00;0.00;;;23.60;98.80;;;23.76;49.52;101522.84;4905305;28;97479;-55
2022/09/05 00:04:06;;;;;;;0.17;0.17;;;23.60;98.80;;;23.77;49.69;101518.31;4911376;28;97183;-54
2022/09/05 00:06:40;;;;;;;0.00;0.00;;;23.50;99.20;;;23.75;49.57;101518.44;4913108;28;101688;-50
2022/09/05 00:09:37;;;;;;;0.00;0.00;;;23.50;99.00;;;23.73;49.67;101523.06;4917983;28;97158;-50
2022/09/05 00:12:05;;;;;;;0.13;0.03;;;23.50;99.10;;;23.73;49.60;101517.69;4922344;28;96938;-49
2022/09/05 00:15:10;;;;;;;0.43;0.00;;;23.50;99.00;;;23.73;49.39;101517.69;4915129;28;97482;-54
2022/09/05 00:17:45;;;;;;;0.10;0.10;;;23.50;98.90;;;23.72;49.70;101510.56;4902093;28;103591;-55
2022/09/05 00:20:46;;;;;;;0.00;0.00;;;23.50;99.10;;;23.72;49.57;101515.94;4909140;28;99208;-52
2022/09/05 00:23:46;;;;;;;0.10;0.10;;;23.50;98.90;;;23.62;49.85;101521.19;4911306;28;97223;-52
2022/09/05 00:26:39;;;;;;;0.00;0.00;;;23.40;99.40;;;23.60;49.83;101512.38;4908693;28;97204;-52
2022/09/05 00:29:11;;;;;;;0.40;0.20;;;23.30;99.30;;;23.60;49.73;101516.91;4910852;28;96919;-54
2022/09/05 00:31:55;;;;;;;0.10;0.10;;;23.30;99.30;;;23.56;49.92;101515.38;4920360;28;97792;-52
2022/09/05 00:35:00;;;;;;;0.00;0.00;;;23.20;99.40;;;23.56;50.01;101515.38;4909979;28;97368;-52
2022/09/05 00:37:45;;;;;;;0.00;0.00;;;23.20;99.40;;;23.56;49.85;101515.38;4908738;28;97922;-53
2022/09/05 00:40:35;;;;;;;0.00;0.00;;;23.30;99.20;;;23.58;49.92;101508.06;4921527;28;98963;-54
2022/09/05 00:43:07;;;;;;;0.43;0.20;;;23.30;99.40;;;23.59;49.82;101496.34;4908348;28;97289;-56
2022/09/05 00:45:57;;;;;;;0.00;0.00;;;23.40;99.20;;;23.60;49.72;101507.00;4911701;28;97010;-53
2022/09/05 00:49:13;;;;;;;0.00;0.00;;;23.40;99.00;;;23.61;49.57;101502.47;4910990;28;97581;-51
2022/09/05 00:54:23;;;;;;;0.00;0.00;;;23.30;99.30;;;23.54;50.02;101509.25;4936610;22;124526;-85
2022/09/05 00:57:36;;;;;;;0.10;0.10;;;23.30;99.30;;;23.52;50.03;101509.38;4927716;28;97570;-85
2022/09/05 01:00:12;;;;;;;0.00;0.00;;;23.20;99.70;;;23.47;50.25;101513.41;4889569;28;102541;-85
2022/09/05 01:02:53;;;;;;;0.10;0.10;;;23.10;99.80;;;23.43;50.22;101510.97;4947282;28;101651;-85
2022/09/05 01:06:04;;;;;;;0.10;0.10;;;23.10;99.90;;;23.42;50.20;101503.81;4939443;28;98413;-84
2022/09/05 01:09:03;;;;;;;0.00;0.00;;;23.10;99.90;;;23.42;50.27;101511.91;4915043;28;97331;-87
2022/09/05 01:11:47;;;;;;;0.03;0.03;;;23.10;99.80;;;23.44;50.28;101506.44;4899999;28;97397;-85
2022/09/05 01:14:34;;;;;;;0.00;0.00;;;23.10;99.60;;;23.42;50.17;101497.59;4916857;28;100466;-85
2022/09/05 01:17:37;;;;;;;0.10;0.00;;;23.20;99.70;;;23.45;50.17;101514.38;4906400;28;98313;-85
2022/09/05 01:20:30;;;;;;;0.00;0.00;;;23.10;99.70;;;23.45;50.20;101508.16;4920658;28;100090;-85
2022/09/05 01:23:34;;;;;;;0.00;0.00;;;23.20;99.50;;;23.43;49.97;101510.97;4903650;28;104706;-85
2022/09/05 01:26:37;;;;;;;0.10;0.10;;;23.20;99.30;;;23.42;50.21;101511.91;4903710;28;101947;-86
2022/09/05 01:29:33;;;;;;;0.00;0.00;;;23.10;99.20;;;23.41;49.97;101507.50;4910056;28;101213;-86
2022/09/05 01:32:10;;;;;;;0.00;0.00;;;23.10;99.20;;;23.38;50.42;101507.75;4905063;28;97479;-86
2022/09/05 01:35:08;;;;;;;0.00;0.00;;;23.00;99.80;;;23.38;50.28;101512.25;4931187;28;97356;-86
2022/09/05 01:37:45;;;;;;;0.00;0.00;;;23.10;99.80;;;23.40;50.29;101505.78;4927691;28;101758;-85
2022/09/05 01:40:37;;;;;;;0.07;0.07;;;23.10;99.70;;;23.45;50.21;101519.78;4894080;28;101207;-86
2022/09/05 01:43:08;;;;;;;0.00;0.00;;;23.20;99.60;;;23.42;50.32;101517.28;4906185;28;97322;-88
2022/09/05 01:45:49;;;;;;;0.00;0.00;;;23.10;99.30;;;23.38;50.41;101512.25;4930093;28;97395;-87
2022/09/05 01:48:46;;;;;;;0.00;0.00;;;23.10;99.70;;;23.35;50.47;101517.88;4893919;28;100276;-87
2022/09/05 01:51:57;;;;;;;0.00;0.00;;;23.00;99.90;;;23.37;50.46;101515.94;4933971;28;101230;-87
2022/09/05 01:55:25;;;;;;;0.00;0.00;;;23.00;99.90;;;23.40;50.35;101516.56;4931938;28;97337;-87
2022/09/05 01:58:14;;;;;;;0.00;0.00;;;23.10;99.80;;;23.40;50.21;101507.63;4896987;28;97124;-86
2022/09/05 02:01:06;;;;;;;0.53;0.33;;;23.10;99.60;;;23.42;50.42;101514.59;4913938;28;103249;-87
2022/09/05 02:04:27;;;;;;;0.00;0.00;;;23.20;99.70;;;23.47;50.23;101510.72;4903176;28;102674;-88
2022/09/05 02:07:23;;;;;;;0.00;0.00;;;23.20;99.60;;;23.48;50.09;101512.44;4897263;28;97446;-85
2022/09/05 02:10:45;;;;;;;0.00;0.00;;;23.20;99.50;;;23.50;50.04;101516.72;4904278;28;98962;-86
2022/09/05 02:13:23;;;;;;;0.00;0.00;;;23.30;99.40;;;23.51;49.94;101507.66;4908726;28;104972;-86
2022/09/05 02:16:05;;;;;;;0.00;0.00;;;23.30;99.30;;;23.55;50.17;101513.66;4929378;28;99901;-85
2022/09/05 02:19:00;;;;;;;0.00;0.00;;;23.40;99.30;;;23.56;49.93;101510.84;4922944;28;104133;-85
2022/09/05 02:21:50;;;;;;;0.00;0.00;;;23.40;99.30;;;23.58;49.79;101513.44;4897502;28;97198;-85
2022/09/05 02:24:36;;;;;;;0.00;0.00;;;23.40;99.20;;;23.58;49.78;101511.66;4913772;28;99249;-85
2022/09/05 02:27:28;;;;;;;0.00;0.00;;;23.40;99.20;;;23.60;49.90;101514.22;4931166;28;98391;-86
2022/09/05 02:30:15;;;;;;;0.00;0.00;;;23.40;99.20;;;23.57;49.73;101500.94;4917605;28;97052;-85
2022/09/05 02:33:02;;;;;;;0.20;0.20;;;23.40;99.20;;;23.59;49.97;101509.81;4917674;28;102137;-85
2022/09/05 02:35:52;;;;;;;0.00;0.00;;;23.40;99.20;;;23.58;49.97;101503.56;4913834;28;103226;-86
2022/09/05 02:38:30;;;;;;;0.10;0.10;;;23.40;99.10;;;23.60;49.82;101511.53;4914399;28;100067;-85
2022/09/05 02:41:15;;;;;;;0.00;0.00;;;23.40;99.10;;;23.60;49.91;101519.59;4938760;28;103287;-85
2022/09/05 02:44:02;;;;;;;0.10;0.07;;;23.40;99.30;;;23.60;49.83;101519.59;4922573;28;97301;-84
2022/09/05 02:47:00;;;;;;;0.00;0.00;;;23.40;99.40;;;23.61;49.87;101507.84;4915457;28;102863;-84
2022/09/05 02:50:08;;;;;;;0.00;0.00;;;23.40;99.30;;;23.61;49.87;101503.34;4917583;28;97759;-84
2022/09/05 02:52:40;;;;;;;0.10;0.10;;;23.40;99.30;;;23.57;50.07;101517.97;4912484;28;98240;-87
2022/09/05 02:55:30;;;;;;;0.00;0.00;;;23.40;99.30;;;23.61;49.88;101521.31;4910232;28;97009;-84
2022/09/05 02:58:02;;;;;;;0.00;0.00;;;23.40;99.30;;;23.62;50.04;101520.34;4916020;28;99205;-84
2022/09/05 03:00:39;;;;;;;0.00;0.00;;;23.40;99.30;;;23.61;49.92;101518.63;4925587;28;101594;-84
2022/09/05 03:04:00;;;;;;;0.00;0.00;;;23.40;99.30;;;23.65;49.86;101525.50;4883463;28;97453;-85
2022/09/05 03:07:12;;;;;;;0.23;0.23;;;23.40;99.30;;;23.60;50.09;101525.84;4908233;28;97220;-86
2022/09/05 03:10:39;;;;;;;0.00;0.00;;;23.40;98.90;;;23.60;50.05;101527.69;4927905;28;103325;-86
2022/09/05 03:13:45;;;;;;;0.13;0.07;;;23.40;99.40;;;23.60;50.03;101522.31;4928917;28;102682;-86
2022/09/05 03:16:50;;;;;;;0.00;0.00;;;23.40;99.30;;;23.57;49.87;101517.97;4920820;28;97125;-85
2022/09/05 03:19:47;;;;;;;0.00;0.00;;;23.40;99.30;;;23.60;49.92;101527.69;4914071;28;97093;-85
2022/09/05 03:23:02;;;;;;;0.00;0.00;;;23.40;99.40;;;23.61;50.00;101518.63;4928692;28;98874;-86
2022/09/05 03:25:56;;;;;;;0.00;0.00;;;23.40;99.30;;;23.59;49.90;101523.28;4910259;28;102466;-85
2022/09/05 03:28:59;;;;;;;0.10;0.10;;;23.40;99.30;;;23.60;49.88;101522.31;4914239;28;96907;-85
2022/09/05 03:31:45;;;;;;;0.00;0.00;;;23.40;99.30;;;23.60;50.07;101522.31;4936358;28;97437;-85
2022/09/05 03:34:32;;;;;;;0.00;0.00;;;23.40;99.10;;;23.57;49.85;101517.09;4931677;28;98656;-85
2022/09/05 03:37:47;;;;;;;0.00;0.00;;;23.40;99.10;;;23.53;49.96;101521.88;4924024;28;98465;-86
2022/09/05 03:40:44;;;;;;;0.00;0.00;;;23.20;99.40;;;23.53;50.11;101523.69;4914061;28;97218;-86
2022/09/05 03:44:23;;;;;;;0.00;0.00;;;23.20;99.50;;;23.52;50.08;101519.28;4920883;28;98026;-86
2022/09/05 03:46:52;;;;;;;0.10;0.10;;;23.30;99.50;;;23.53;50.17;101523.69;4883318;28;104125;-86
2022/09/05 03:49:56;;;;;;;0.07;0.07;;;23.30;99.20;;;23.54;50.19;101525.41;4928268;28;98145;-86
2022/09/05 03:52:30;;;;;;;0.00;0.00;;;23.30;99.40;;;23.55;50.02;101524.44;4923317;28;97226;-87
2022/09/05 03:55:14;;;;;;;0.00;0.00;;;23.30;99.20;;;23.55;50.22;101519.06;4924290;28;101497;-85
2022/09/05 03:58:16;;;;;;;0.00;0.00;;;23.30;99.20;;;23.56;50.16;101524.31;4946054;28;101723;-87
2022/09/05 04:01:10;;;;;;;0.00;0.00;;;23.30;99.40;;;23.57;50.00;101523.38;4905887;28;103443;-85
2022/09/05 04:03:50;;;;;;;0.27;0.00;;;23.40;99.30;;;23.58;49.90;101511.66;4911455;28;97150;-86
2022/09/05 04:06:29;;;;;;;0.00;0.00;;;23.40;99.30;;;23.57;49.97;101517.09;4893133;28;98874;-86
2022/09/05 04:09:53;;;;;;;0.10;0.10;;;23.40;99.10;;;23.58;50.13;101519.72;4940093;28;99009;-85
2022/09/05 04:12:44;;;;;;;0.00;0.00;;;23.40;99.30;;;23.58;49.99;101516.16;4880377;28;101817;-85
2022/09/05 04:15:39;;;;;;;0.10;0.00;;;23.40;99.40;;;23.57;50.21;101522.47;4902535;28;97321;-85
2022/09/05 04:18:17;;;;;;;0.00;0.00;;;23.30;99.40;;;23.56;49.99;101515.38;4900621;28;97316;-85
2022/09/05 04:21:00;;;;;;;0.00;0.00;;;23.30;99.20;;;23.53;50.02;101510.25;4932514;28;98637;-85
2022/09/05 04:24:10;;;;;;;0.00;0.00;;;23.30;99.00;;;23.52;50.24;101519.28;4910974;28;98502;-85
2022/09/05 04:27:17;;;;;;;0.00;0.00;;;23.20;99.40;;;23.50;50.31;101513.16;4910710;28;96900;-85
2022/09/05 04:30:27;;;;;;;0.00;0.00;;;23.20;99.60;;;23.50;50.24;101522.09;4920852;28;97148;-86
2022/09/05 04:33:10;;;;;;;0.00;0.00;;;23.20;99.50;;;23.47;50.33;101518.78;4916064;28;102741;-86
2022/09/05 04:36:29;;;;;;;0.00;0.00;;;23.20;99.40;;;23.47;50.45;101521.50;4910287;28;101733;-85
2022/09/05 04:39:16;;;;;;;0.10;0.10;;;23.20;99.80;;;23.41;50.41;101530.88;4858414;28;97664;-86
2022/09/05 04:41:58;;;;;;;0.07;0.07;;;23.10;99.70;;;23.32;50.59;101532.44;4900453;28;101204;-85
2022/09/05 04:44:54;;;;;;;0.00;0.00;;;23.00;99.70;;;23.32;50.67;101528.91;4918529;28;102101;-85
2022/09/05 04:47:43;;;;;;;0.00;0.00;;;22.90;99.90;;;23.31;50.67;101530.72;4926941;28;98421;-84
2022/09/05 04:50:16;;;;;;;0.00;0.00;;;23.00;99.90;;;23.28;50.58;101533.63;4915533;28;97117;-84
2022/09/05 04:53:16;;;;;;;0.00;0.00;;;22.90;99.70;;;23.30;50.81;101531.72;4925270;28;104453;-85
2022/09/05 04:55:49;;;;;;;0.00;0.00;;;23.00;99.90;;;23.30;50.82;101536.22;4927054;28;103403;-85
2022/09/05 04:58:43;;;;;;;0.30;0.20;;;23.00;99.90;;;23.18;50.10;101526.38;4922968;28;98320;-85
2022/09/05 05:01:22;;;;;;;0.20;0.20;;;22.90;99.60;;;23.07;51.37;101532.56;4897497;28;97072;-85
2022/09/05 05:03:49;;;;;;;0.00;0.00;;;22.60;99.90;;;23.08;51.43;101545.03;4918780;28;97405;-84
2022/09/05 05:06:33;;;;;;;0.20;0.20;;;22.60;99.90;;;23.12;51.31;101543.81;4934024;28;98660;-84
2022/09/05 05:09:22;;;;;;;0.00;0.00;;;22.70;99.90;;;23.14;51.27;101549.94;4900983;28;99316;-84
2022/09/05 05:12:17;;;;;;;0.10;0.10;;;22.70;99.90;;;23.12;51.13;101555.44;4903424;28;97823;-87
2022/09/05 05:14:59;;;;;;;0.00;0.00;;;22.70;99.90;;;23.13;51.27;101564.38;4917972;28;97202;-86
2022/09/05 05:17:40;;;;;;;0.03;0.00;;;22.70;99.90;;;23.13;51.28;101556.31;4924973;28;98692;-85
2022/09/05 05:20:33;;;;;;;0.00;0.00;;;22.70;99.90;;;23.12;51.11;101559.97;4888768;28;99680;-85
2022/09/05 05:23:12;;;;;;;0.00;0.00;;;22.70;99.90;;;23.13;51.14;101564.38;4938070;28;97110;-85
2022/09/05 05:25:52;;;;;;;0.00;0.00;;;22.80;99.90;;;23.13;51.04;101559.00;4882595;28;97192;-84
2022/09/05 05:28:41;;;;;;;0.07;0.07;;;22.80;99.90;;;23.18;51.26;101564.06;4904236;28;99044;-84
2022/09/05 05:31:14;;;;;;;0.20;0.00;;;22.90;99.90;;;23.20;51.00;101557.59;4907586;28;103785;-85
2022/09/05 05:33:46;;;;;;;0.97;0.20;;;22.90;99.90;;;23.24;50.94;101553.69;4912879;28;97256;-85
2022/09/05 05:36:23;;;;;;;0.00;0.00;;;23.00;99.90;;;23.25;50.73;101555.41;4911743;28;97277;-87
2022/09/05 05:39:04;;;;;;;0.83;0.20;;;23.00;99.90;;;23.30;50.71;101557.78;4896673;28;98797;-87
2022/09/05 05:41:49;;;;;;;0.00;0.00;;;23.00;99.90;;;23.27;50.71;101555.28;4910020;28;102731;-87
2022/09/05 05:44:27;;;;;;;0.00;0.00;;;23.00;99.90;;;23.28;50.68;101560.53;4897155;28;97239;-87
2022/09/05 05:47:15;;;;;;;0.00;0.00;;;23.00;99.90;;;23.30;50.68;101558.63;4913927;28;97139;-87
2022/09/05 05:50:09;;;;;;;0.00;0.00;;;23.00;99.90;;;23.36;50.75;101557.28;4902371;28;102683;-88
2022/09/05 05:52:44;;;;;;;0.10;0.07;;;23.10;99.90;;;23.40;50.52;101559.63;4931161;28;101297;-86
2022/09/05 05:55:43;;;;;;;0.00;0.00;;;23.10;99.90;;;23.45;50.28;101562.00;4920100;28;97017;-87
2022/09/05 05:58:50;;;;;;;0.00;0.00;;;23.20;99.80;;;23.45;50.40;101568.25;4914043;28;97054;-88
2022/09/05 06:01:37;;;;;;;0.10;0.10;;;23.20;99.50;;;23.43;50.42;101566.59;4916334;28;98994;-88
2022/09/05 06:04:30;;;;;;;0.50;0.47;;;23.10;99.90;;;23.38;50.68;101568.78;4927649;28;99050;-86
2022/09/05 06:07:37;;;;;;;0.00;0.00;;;23.10;99.90;;;23.32;50.77;101578.22;4928717;28;102873;-87
2022/09/05 06:10:46;;;;;;;0.10;0.10;;;23.00;99.90;;;23.28;50.81;101579.38;4909776;28;100210;-87
2022/09/05 06:13:30;;;;;;;0.00;0.00;;;22.90;99.90;;;23.27;50.99;101582.19;4904734;28;99186;-89
2022/09/05 06:16:38;;;;;;;0.00;0.00;;;22.90;99.90;;;23.27;51.01;101580.34;4929713;28;98161;-88
2022/09/05 06:19:37;;;;;;;0.00;0.00;;;22.90;99.90;;;23.28;50.82;101571.31;4917608;28;97360;-87
2022/09/05 06:22:37;;;;;;;0.00;0.00;;;23.00;99.90;;;23.32;50.67;101575.50;4926424;28;99057;-88
2022/09/05 06:25:58;;;;;;;0.00;0.00;;;23.00;99.90;;;23.30;50.88;101572.09;4940018;28;103692;-88
2022/09/05 06:28:35;;;;;;;0.00;0.00;;;23.00;99.90;;;23.30;50.74;101573.91;4930349;28;102350;-88
2022/09/05 06:31:24;;;;;;;0.10;0.10;;;23.00;99.90;;;23.24;51.13;101572.53;4886771;28;97081;-86
2022/09/05 06:34:40;;;;;;;0.00;0.00;;;22.90;99.90;;;23.23;51.18;101578.88;4883341;28;97032;-88
2022/09/05 06:37:24;;;;;;;0.00;0.00;;;22.90;99.90;;;23.15;51.58;101575.91;4874778;28;101726;-85
2022/09/05 06:39:59;;;;;;;0.97;0.47;;;22.80;99.90;;;23.17;51.02;101579.34;4919247;28;99371;-86
2022/09/05 06:42:50;;;;;;;0.00;0.00;;;22.80;99.90;;;23.22;51.03;101571.78;4896676;28;97127;-86
2022/09/05 06:45:45;;;;;;;0.00;0.00;;;22.90;99.90;;;23.28;50.58;101578.53;4925712;28;97089;-87
2022/09/05 06:48:26;;;;;;;0.10;0.10;;;23.10;99.90;;;23.34;50.64;101581.63;4913980;28;98898;-86
2022/09/05 06:51:13;;;;;;;0.10;0.10;;;23.10;99.90;;;23.39;50.39;101579.44;4911976;28;98366;-87
2022/09/05 06:53:57;;;;;;;0.00;0.00;;;23.20;99.90;;;23.40;50.64;101581.16;4920587;28;97321;-86
2022/09/05 06:56:49;;;;;;;0.00;0.00;;;23.20;99.90;;;23.38;51.37;101571.50;4886063;28;97325;-85
2022/09/05 06:59:36;;;;;;;0.10;0.10;;;23.20;99.90;;;23.36;50.59;101578.81;4907284;28;104106;-86
2022/09/05 07:02:33;;;;;;;0.10;0.10;;;23.10;99.90;;;23.37;50.70;101576.03;4905277;28;98534;-87
2022/09/05 07:05:55;;;;;;;1.13;0.10;;;23.20;99.90;;;23.38;50.51;101572.34;4880845;28;97381;-86
2022/09/05 07:08:33;;;;;;;0.03;0.03;;;23.20;99.90;;;23.43;50.39;101572.88;4892504;28;99166;-86
2022/09/05 07:11:24;;;;;;;0.00;0.00;;;23.20;99.90;;;23.43;50.63;101562.13;4934490;28;100196;-86
2022/09/05 07:14:02;;;;;;;0.43;0.20;;;23.20;99.90;;;23.44;50.48;101573.75;4917208;28;102198;-87
2022/09/05 07:16:46;;;;;;;0.10;0.10;;;23.30;99.80;;;23.45;50.34;101573.63;4891458;28;97184;-85
2022/09/05 07:19:47;;;;;;;0.00;0.00;;;23.30;99.90;;;23.44;50.54;101571.91;4890413;28;97388;-85
2022/09/05 07:23:00;;;;;;;0.00;0.00;;;23.30;99.70;;;23.43;50.31;101570.19;4912529;28;99016;-88
2022/09/05 07:25:29;;;;;;;0.20;0.13;;;23.40;99.60;;;23.39;50.48;101573.22;4901275;28;99694;-87
2022/09/05 07:28:12;;;;;;;0.00;0.00;;;23.40;99.50;;;23.42;50.60;101579.22;4927198;28;97296;-86
2022/09/05 07:30:52;;;;;;;0.00;0.00;;;23.40;99.90;;;23.53;50.67;101585.63;4917537;28;102481;-85
2022/09/05 07:33:28;;;;;;;0.27;0.10;;;23.40;99.80;;;23.58;50.40;101594.25;4912101;28;98976;-85
2022/09/05 07:36:08;;;;;;;0.00;0.00;;;23.50;99.70;;;23.59;50.09;101586.06;4914505;28;98582;-86
2022/09/05 07:38:49;;;;;;;0.00;0.00;;;23.50;99.50;;;23.60;50.06;101586.94;4915611;28;97431;-87
2022/09/05 07:41:32;;;;;;;0.00;0.00;;;23.50;99.40;;;23.58;50.11;101588.84;4898484;28;97285;-86
2022/09/05 07:44:30;;;;;;;0.00;0.00;;;23.50;99.30;;;23.58;49.91;101588.84;4884017;28;98008;-86
2022/09/05 07:47:20;;;;;;;0.00;0.00;;;23.50;99.30;;;23.58;50.14;101588.84;4885026;28;101426;-86
2022/09/05 07:49:50;;;;;;;0.22;0.10;;;23.50;99.30;;;23.67;50.03;101593.56;4885006;28;97717;-86
2022/09/05 07:52:20;;;;;;;0.23;0.23;;;23.60;99.30;;;23.72;50.30;101591.38;4885854;28;97487;-87
2022/09/05 07:54:52;;;;;;;0.00;0.00;;;23.60;99.70;;;23.75;50.23;101601.94;4908617;28;100444;-86
2022/09/05 07:57:40;;;;;;;0.00;0.00;;;23.60;99.60;;;23.75;49.46;101607.31;4889562;28;99889;-87
2022/09/05 08:00:22;;;;;;;0.63;0.20;;;23.60;99.20;;;23.74;49.88;101590.28;4918815;28;97187;-86
2022/09/05 08:02:57;;;;;;;0.20;0.20;;;23.60;99.20;;;23.79;49.74;101603.41;4911544;28;97260;-85
2022/09/05 08:05:27;;;;;;;0.10;0.10;;;23.60;99.20;;;23.79;49.84;101602.53;4897528;28;103658;-85
2022/09/05 08:08:00;;;;;;;0.77;0.20;;;23.70;99.40;;;23.81;49.17;101597.91;4908423;28;104548;-86
2022/09/05 08:10:41;;;;;;;0.03;0.03;;;23.70;98.90;;;23.81;49.43;101598.75;4920990;28;97517;-84
2022/09/05 08:13:30;;;;;;;0.03;0.00;;;23.70;98.90;;;23.82;49.20;101589.69;4923310;28;97463;-86
2022/09/05 08:16:00;;;;;;;0.30;0.30;;;23.70;98.60;;;23.86;49.15;101599.25;4897082;28;98715;-86
2022/09/05 08:19:20;;;;;;;0.25;0.10;;;23.70;98.80;;;23.93;49.04;101597.81;4898272;28;99019;-84
2022/09/05 08:21:50;;;;;;;0.10;0.10;;;23.80;98.80;;;23.86;49.17;101588.47;4921763;28;96983;-84
2022/09/05 08:24:46;;;;;;;0.43;0.10;;;23.80;98.80;;;23.79;49.58;101598.00;4911635;28;97327;-85
2022/09/05 08:27:22;;;;;;;0.00;0.00;;;23.70;98.80;;;23.81;49.62;101590.66;4903408;28;98732;-87
2022/09/05 08:29:56;;;;;;;0.00;0.00;;;23.80;98.80;;;23.86;49.52;101587.63;4900718;28;99588;-86
2022/09/05 08:33:09;;;;;;;0.10;0.10;;;23.80;98.90;;;23.96;49.01;101588.63;4917686;28;97595;-87
2022/09/05 08:36:09;;;;;;;0.10;0.10;;;23.80;98.10;;;24.00;48.75;101585.56;4929866;28;97299;-88
2022/09/05 08:38:39;;;;;;;0.05;0.03;;;23.90;98.10;;;23.99;48.86;101581.16;4917809;28;100560;-86
2022/09/05 08:41:22;;;;;;;0.10;0.10;;;23.90;98.30;;;24.06;48.85;101586.94;4905239;28;99993;-85
2022/09/05 08:44:13;;;;;;;0.03;0.03;;;24.00;98.40;;;24.15;47.73;101579.97;4937372;28;97437;-85
2022/09/05 08:47:20;;;;;;;0.00;0.00;;;24.10;97.60;;;24.02;48.95;101578.25;4906740;28;97369;-87
2022/09/05 08:50:43;;;;;;;0.00;0.00;;;24.00;98.40;;;23.97;48.98;101569.66;4819953;28;103252;-86
2022/09/05 08:56:28;;;;;;;1.35;0.10;;;23.90;98.20;;;24.04;48.98;101570.91;4950139;22;118225;-46
2022/09/05 08:58:58;;;;;;;0.25;0.15;;;24.00;98.40;;;24.04;48.87;101573.59;4932421;28;97544;-50
2022/09/05 09:01:37;;;;;;;0.13;0.10;;;24.00;98.40;;;24.07;48.55;101566.25;4932398;28;97449;-51
2022/09/05 09:04:42;;;;;;;0.00;0.00;;;24.00;97.90;;;24.08;48.93;101559.88;4923800;28;99460;-47
2022/09/05 09:07:55;;;;;;;0.10;0.00;;;24.00;98.30;;;24.12;48.83;101550.56;4917849;28;97232;-46
2022/09/05 09:10:56;;;;;;;0.00;0.00;;;24.10;98.20;;;24.23;46.72;101554.13;4884371;28;97370;-49
2022/09/05 09:13:51;;;;;;;0.35;0.35;;;24.10;96.80;;;24.16;48.62;101552.03;4913869;28;97487;-48
2022/09/05 09:16:35;;;;;;;0.10;0.10;;;24.20;97.90;;;24.10;48.90;101557.91;4915935;28;97227;-44
2022/09/05 09:19:09;;;;;;;0.00;0.00;;;24.10;98.20;;;24.16;48.48;101560.13;4937989;28;97113;-49
2022/09/05 09:21:57;;;;;;;0.10;0.10;;;24.10;98.00;;;24.20;48.52;101553.53;4905663;28;96840;-43
2022/09/05 09:24:41;;;;;;;0.00;0.00;;;24.10;98.00;;;24.27;47.31;101552.03;4914940;28;99440;-45
2022/09/05 09:27:44;;;;;;;0.05;0.00;;;24.20;97.60;;;24.32;48.04;101547.22;4905100;28;96958;-52
2022/09/05 09:30:12;;;;;;;0.00;0.00;;;24.30;97.50;;;24.35;47.96;101541.56;4915174;28;97333;-50
2022/09/05 09:32:49;;;;;;;0.50;0.30;;;24.40;97.50;;;24.57;44.17;101552.31;4919837;28;97724;-46
2022/09/05 09:35:48;;;;;;;0.00;0.00;;;24.50;94.90;;;24.52;45.58;101553.69;4918948;28;97539;-48
2022/09/05 09:38:25;;;;;;;0.00;0.00;;;24.50;96.20;;;24.50;47.15;101545.72;4940729;28;97322;-49
2022/09/05 09:41:50;;;;;;;0.00;0.00;;;24.60;96.80;;;24.36;46.94;101537.88;4919044;28;97266;-48
2022/09/05 09:44:48;;;;;;;0.00;0.00;;;24.40;97.30;;;24.36;47.71;101532.50;4909593;28;96775;-50
2022/09/05 09:47:34;;;;;;;0.20;0.10;;;24.30;96.90;;;24.38;47.85;101535.91;4924193;28;97164;-50
2022/09/05 09:50:48;;;;;;;0.10;0.10;;;24.30;97.20;;;24.20;48.40;101532.81;4921042;28;99957;-46
2022/09/05 09:53:53;;;;;;;0.55;0.32;;;24.20;97.60;;;24.26;48.07;101536.84;4918810;28;97190;-45
2022/09/05 09:57:11;;;;;;;0.00;0.00;;;24.20;97.30;;;24.23;47.07;101542.50;4903704;28;97200;-45
2022/09/05 10:00:10;;;;;;;0.00;0.00;;;24.20;97.70;;;24.48;45.56;101545.00;4914075;28;103315;-47
2022/09/05 10:03:11;;;;;;;0.63;0.20;;;24.40;93.90;;;24.47;47.54;101540.59;4900995;28;101616;-50
2022/09/05 10:05:52;;;;;;;0.00;0.00;;;24.50;96.90;;;24.30;47.45;101538.34;4912352;28;97193;-46
2022/09/05 10:08:27;;;;;;;0.38;0.20;;;24.40;95.90;;;24.15;48.09;101531.44;4908270;28;97259;-47
2022/09/05 10:11:16;;;;;;;0.10;0.10;;;24.30;97.30;;;24.09;48.61;101535.50;4924594;28;97871;-46
2022/09/05 10:13:48;;;;;;;0.00;0.00;;;24.10;97.40;;;24.11;47.22;101532.69;4913531;28;100623;-49
2022/09/05 10:16:41;;;;;;;0.00;0.00;;;24.10;96.90;;;24.11;48.59;101532.69;4909360;28;97252;-47
2022/09/05 10:19:31;;;;;;;0.00;0.00;;;24.10;97.80;;;24.24;47.21;101517.25;4918859;28;97680;-44
2022/09/05 10:22:21;;;;;;;0.10;0.10;;;24.20;96.10;;;24.51;44.31;101520.47;4924868;28;99043;-44
2022/09/05 10:25:30;;;;;;;0.00;0.00;;;24.50;95.50;;;24.50;44.80;101513.38;4913451;28;101254;-44
2022/09/05 10:28:04;;;;;;;0.10;0.10;;;24.50;96.50;;;24.63;46.68;101506.00;4867199;28;97153;-45
2022/09/05 10:31:07;;;;;;;0.63;0.32;;;24.60;95.50;;;24.69;44.56;101507.31;4911743;28;97318;-44
2022/09/05 10:34:13;;;;;;;0.00;0.00;;;24.80;95.40;;;24.82;39.88;101512.56;4915351;28;101699;-43
2022/09/05 10:36:44;;;;;;;0.00;0.00;;;24.80;91.50;;;25.12;43.22;101510.06;4924658;28;100940;-42
2022/09/05 10:39:34;;;;;;;0.05;0.00;;;25.20;94.10;;;24.87;46.00;101504.94;4921883;28;97744;-43
2022/09/05 10:42:14;;;;;;;0.10;0.10;;;25.10;95.30;;;25.20;39.39;101510.28;4921987;28;97505;-44
2022/09/05 10:44:46;;;;;;;0.00;0.00;;;25.20;91.70;;;25.40;42.53;101514.00;4922085;28;100387;-43
2022/09/05 10:47:30;;;;;;;0.75;0.60;;;25.50;90.90;;;25.38;44.55;101509.72;4920062;28;98271;-42
2022/09/05 10:50:25;;;;;;;0.73;0.30;;;25.50;93.40;;;25.33;45.13;101506.56;4915008;28;97535;-43
2022/09/05 10:53:02;;;;;;;0.10;0.10;;;25.50;94.70;;;25.16;45.49;101495.31;4920324;28;97193;-43
2022/09/05 10:55:59;;;;;;;0.00;0.00;;;25.30;95.00;;;25.11;45.38;101494.00;4911316;28;102839;-43
2022/09/05 10:59:00;;;;;;;0.00;0.00;;;25.20;94.80;;;25.09;44.78;101499.53;4912037;28;97730;-44
2022/09/05 11:02:06;;;;;;;0.00;0.00;;;25.20;95.30;;;25.34;40.11;101497.47;4905118;28;97799;-44
2022/09/05 11:04:45;;;;;;;0.10;0.08;;;25.40;92.20;;;25.53;44.38;101486.81;4920188;28;96947;-45
2022/09/05 11:07:27;;;;;;;0.00;0.00;;;25.70;93.50;;;25.15;45.43;101490.91;4916149;28;98030;-45
2022/09/05 11:10:42;;;;;;;0.00;0.00;;;25.40;94.80;;;25.25;44.75;101479.34;4912710;28;102743;-45
2022/09/05 11:13:39;;;;;;;0.00;0.00;;;25.30;93.90;;;24.99;45.29;101473.38;4922551;28;97372;-44
2022/09/05 11:16:35;;;;;;;0.00;0.00;;;25.10;94.50;;;25.05;45.40;101473.78;4907388;28;97396;-45
2022/09/05 11:19:05;;;;;;;0.10;0.10;;;25.10;94.20;;;25.14;40.08;101475.69;4915240;28;97760;-44
2022/09/05 11:22:03;;;;;;;0.00;0.00;;;25.20;91.30;;;25.25;44.25;101471.25;4907438;28;101367;-46
2022/09/05 11:24:42;;;;;;;0.10;0.10;;;25.30;90.00;;;25.38;42.78;101466.50;4913395;28;97450;-46
2022/09/05 11:27:35;;;;;;;0.00;0.00;;;25.40;92.10;;;25.66;37.57;101460.44;4918732;28;97003;-43
2022/09/05 11:30:15;;;;;;;0.00;0.00;;;25.70;87.70;;;25.35;44.00;101453.28;4915805;28;97719;-44
2022/09/05 11:33:06;;;;;;;0.03;0.00;;;25.60;93.60;;;25.25;44.54;101449.63;4924706;28;99639;-43
2022/09/05 11:35:57;;;;;;;0.10;0.10;;;25.40;94.20;;;25.28;44.08;101443.97;4921326;28;97142;-46
2022/09/05 11:38:58;;;;;;;0.00;0.00;;;25.30;93.00;;;25.30;40.42;101447.41;4922312;28;97157;-45
2022/09/05 11:41:46;;;;;;;0.15;0.15;;;25.30;92.10;;;24.80;45.51;101444.41;4917508;28;97139;-46
2022/09/05 11:45:14;;;;;;;0.00;0.00;;;25.00;94.70;;;24.48;46.32;101442.53;4919858;28;99547;-46
2022/09/05 11:48:12;;;;;;;0.08;0.00;;;24.70;95.10;;;24.52;46.72;101446.66;4907381;28;99148;-44
2022/09/05 11:51:09;;;;;;;0.25;0.25;;;24.60;95.90;;;24.33;46.91;101441.94;4910032;28;99080;-44
2022/09/05 11:54:39;;;;;;;0.00;0.00;;;24.40;95.90;;;24.29;47.23;101439.56;4913353;28;101865;-44